createdAt,value
2017-03-02T00:00:53.941Z,0
2017-03-02T00:02:05.468Z,0
2017-03-02T00:03:15.763Z,0
2017-03-02T00:04:26.852Z,0
2017-03-02T00:05:39.294Z,0
2017-03-02T00:06:49.433Z,0
2017-03-02T00:08:00.579Z,0
2017-03-02T00:09:12.597Z,0
2017-03-02T00:10:23.846Z,0
2017-03-02T00:11:35.850Z,0
2017-03-02T00:12:47.029Z,0
2017-03-02T00:13:56.660Z,0
2017-03-02T00:15:08.304Z,0
2017-03-02T00:16:19.983Z,0
2017-03-02T00:17:30.144Z,0
2017-03-02T00:18:41.821Z,0
2017-03-02T00:19:53.194Z,0
2017-03-02T00:21:03.588Z,0
2017-03-02T00:22:14.462Z,0
2017-03-02T00:23:26.571Z,0
2017-03-02T00:24:37.109Z,0
2017-03-02T00:25:48.567Z,0
2017-03-02T00:27:00.313Z,0
2017-03-02T00:28:10.699Z,0
2017-03-02T00:29:22.521Z,0
2017-03-02T00:30:33.804Z,0
2017-03-02T00:31:44.565Z,0
2017-03-02T00:32:55.773Z,0
2017-03-02T00:34:07.333Z,0
2017-03-02T00:35:17.784Z,0
2017-03-02T00:36:29.426Z,0
2017-03-02T00:37:41.142Z,0
2017-03-02T00:38:51.609Z,0
2017-03-02T00:40:03.355Z,0
2017-03-02T00:41:14.900Z,0
2017-03-02T00:42:25.095Z,0
2017-03-02T00:43:35.750Z,0
2017-03-02T00:44:46.255Z,0
2017-03-02T00:45:56.300Z,0
2017-03-02T00:47:06.789Z,0
2017-03-02T00:48:17.120Z,0
2017-03-02T00:49:29.011Z,0
2017-03-02T00:50:40.436Z,0
2017-03-02T00:51:50.797Z,0
2017-03-02T00:53:02.696Z,0
2017-03-02T00:54:13.930Z,0
2017-03-02T00:55:24.774Z,0
2017-03-02T00:56:35.829Z,0
2017-03-02T00:57:47.369Z,0
2017-03-02T00:58:58.008Z,0
2017-03-02T01:00:09.795Z,0
2017-03-02T01:01:21.453Z,0
2017-03-02T01:02:31.451Z,0
2017-03-02T01:03:43.422Z,0
2017-03-02T01:04:54.530Z,0
2017-03-02T01:06:05.253Z,0
2017-03-02T01:07:16.978Z,0
2017-03-02T01:08:28.142Z,0
2017-03-02T01:09:38.636Z,0
2017-03-02T01:10:50.404Z,0
2017-03-02T01:12:01.714Z,0
2017-03-02T01:13:12.067Z,0
2017-03-02T01:14:22.633Z,0
2017-03-02T01:15:33.048Z,0
2017-03-02T01:16:43.484Z,0
2017-03-02T01:17:54.092Z,0
2017-03-02T01:19:04.634Z,0
2017-03-02T01:20:16.032Z,0
2017-03-02T01:21:27.602Z,0
2017-03-02T01:22:38.028Z,0
2017-03-02T01:23:49.667Z,0
2017-03-02T01:25:01.048Z,0
2017-03-02T01:26:11.584Z,0
2017-03-02T01:27:22.907Z,0
2017-03-02T01:28:34.599Z,0
2017-03-02T01:29:45.263Z,0
2017-03-02T01:30:56.678Z,0
2017-03-02T01:32:08.191Z,0
2017-03-02T01:33:18.745Z,0
2017-03-02T01:34:30.282Z,0
2017-03-02T01:35:41.717Z,0
2017-03-02T01:36:52.205Z,0
2017-03-02T01:38:02.844Z,0
2017-03-02T01:39:13.158Z,0
2017-03-02T01:40:23.478Z,0
2017-03-02T01:41:34.065Z,0
2017-03-02T01:42:44.774Z,0
2017-03-02T01:43:56.682Z,0
2017-03-02T01:45:07.749Z,0
2017-03-02T01:46:18.089Z,0
2017-03-02T01:47:29.782Z,0
2017-03-02T01:48:41.172Z,0
2017-03-02T01:49:51.651Z,0
2017-03-02T01:51:02.815Z,0
2017-03-02T01:52:14.991Z,0
2017-03-02T01:53:25.342Z,0
2017-03-02T01:54:36.882Z,0
2017-03-02T01:55:48.635Z,0
2017-03-02T01:56:58.760Z,0
2017-03-02T01:58:10.432Z,0
2017-03-02T01:59:21.825Z,0
2017-03-02T02:00:32.310Z,0
2017-03-02T02:01:43.691Z,0
2017-03-02T02:02:55.297Z,0
2017-03-02T02:04:05.798Z,0
2017-03-02T02:05:16.133Z,0
2017-03-02T02:06:26.171Z,0
2017-03-02T02:07:35.878Z,0
2017-03-02T02:08:45.636Z,0
2017-03-02T02:09:55.648Z,0
2017-03-02T02:11:06.442Z,0
2017-03-02T02:12:16.851Z,0
2017-03-02T02:13:28.343Z,0
2017-03-02T02:14:40.054Z,0
2017-03-02T02:15:50.502Z,0
2017-03-02T02:17:02.271Z,0
2017-03-02T02:18:13.713Z,0
2017-03-02T02:19:24.317Z,0
2017-03-02T02:20:35.405Z,0
2017-03-02T02:21:45.637Z,0
2017-03-02T02:22:55.032Z,0
2017-03-02T02:24:04.100Z,0
2017-03-02T02:25:13.093Z,0
2017-03-02T02:26:22.078Z,0
2017-03-02T02:27:31.392Z,0
2017-03-02T02:28:40.882Z,0
2017-03-02T02:29:49.860Z,0
2017-03-02T02:30:58.857Z,0
2017-03-02T02:32:07.948Z,0
2017-03-02T02:33:17.241Z,0
2017-03-02T02:34:26.303Z,0
2017-03-02T02:35:35.291Z,0
2017-03-02T02:36:44.358Z,0
2017-03-02T02:37:53.346Z,0
2017-03-02T02:39:02.991Z,0
2017-03-02T02:40:11.980Z,0
2017-03-02T02:41:20.961Z,0
2017-03-02T02:42:29.952Z,0
2017-03-02T02:43:38.936Z,0
2017-03-02T02:44:48.171Z,0
2017-03-02T02:45:57.172Z,0
2017-03-02T02:47:06.187Z,0
2017-03-02T02:48:15.246Z,0
2017-03-02T02:49:24.236Z,0
2017-03-02T02:50:33.475Z,0
2017-03-02T02:51:42.448Z,0
2017-03-02T02:52:51.439Z,0
2017-03-02T02:54:00.829Z,0
2017-03-02T02:55:09.824Z,0
2017-03-02T02:56:19.065Z,0
2017-03-02T02:57:28.055Z,0
2017-03-02T02:58:37.031Z,0
2017-03-02T02:59:46.033Z,0
2017-03-02T03:00:55.022Z,0
2017-03-02T03:02:04.310Z,0
2017-03-02T03:03:13.298Z,0
2017-03-02T03:04:22.377Z,0
2017-03-02T03:05:31.365Z,0
2017-03-02T03:06:40.369Z,0
2017-03-02T03:07:49.608Z,0
2017-03-02T03:08:59.021Z,0
2017-03-02T03:10:08.009Z,0
2017-03-02T03:11:17.015Z,0
2017-03-02T03:12:26.008Z,0
2017-03-02T03:13:35.648Z,0
2017-03-02T03:14:44.649Z,0
2017-03-02T03:15:53.653Z,0
2017-03-02T03:17:02.741Z,0
2017-03-02T03:18:11.743Z,0
2017-03-02T03:19:21.038Z,0
2017-03-02T03:20:30.013Z,0
2017-03-02T03:21:39.002Z,0
2017-03-02T03:22:48.015Z,0
2017-03-02T03:23:56.996Z,0
2017-03-02T03:25:06.283Z,0
2017-03-02T03:26:15.288Z,0
2017-03-02T03:27:24.289Z,0
2017-03-02T03:28:33.270Z,0
2017-03-02T03:29:42.364Z,0
2017-03-02T03:30:51.665Z,0
2017-03-02T03:32:00.652Z,0
2017-03-02T03:33:09.638Z,0
2017-03-02T03:34:18.630Z,0
2017-03-02T03:35:27.641Z,0
2017-03-02T03:36:36.879Z,0
2017-03-02T03:37:45.856Z,0
2017-03-02T03:38:56.092Z,0
2017-03-02T03:40:06.664Z,0
2017-03-02T03:41:15.726Z,0
2017-03-02T03:42:25.093Z,0
2017-03-02T03:43:34.093Z,0
2017-03-02T03:44:43.093Z,0
2017-03-02T03:45:52.094Z,0
2017-03-02T03:47:01.092Z,0
2017-03-02T03:48:10.367Z,0
2017-03-02T03:49:19.353Z,0
2017-03-02T03:50:28.429Z,0
2017-03-02T03:51:37.409Z,0
2017-03-02T03:52:46.420Z,0
2017-03-02T03:53:55.665Z,0
2017-03-02T03:55:04.659Z,0
2017-03-02T03:56:13.672Z,0
2017-03-02T03:57:22.668Z,0
2017-03-02T03:58:31.683Z,0
2017-03-02T03:59:40.928Z,0
2017-03-02T04:00:50.016Z,0
2017-03-02T04:01:59.028Z,0
2017-03-02T04:03:08.422Z,0
2017-03-02T04:04:17.427Z,0
2017-03-02T04:05:26.717Z,0
2017-03-02T04:06:35.700Z,0
2017-03-02T04:07:44.819Z,0
2017-03-02T04:08:53.824Z,0
2017-03-02T04:10:02.817Z,0
2017-03-02T04:11:12.101Z,0
2017-03-02T04:12:21.079Z,0
2017-03-02T04:13:30.061Z,0
2017-03-02T04:14:39.219Z,0
2017-03-02T04:15:48.243Z,0
2017-03-02T04:16:57.631Z,0
2017-03-02T04:18:06.602Z,0
2017-03-02T04:19:15.619Z,0
2017-03-02T04:20:25.036Z,0
2017-03-02T04:21:34.061Z,0
2017-03-02T04:22:43.784Z,0
2017-03-02T04:23:52.759Z,0
2017-03-02T04:25:01.733Z,0
2017-03-02T04:26:10.743Z,0
2017-03-02T04:27:19.725Z,0
2017-03-02T04:28:29.019Z,0
2017-03-02T04:29:37.999Z,0
2017-03-02T04:30:47.001Z,0
2017-03-02T04:31:55.983Z,0
2017-03-02T04:33:04.993Z,0
2017-03-02T04:34:14.282Z,0
2017-03-02T04:35:23.277Z,0
2017-03-02T04:36:32.353Z,0
2017-03-02T04:37:41.340Z,0
2017-03-02T04:38:50.323Z,0
2017-03-02T04:40:00.006Z,0
2017-03-02T04:41:09.004Z,0
2017-03-02T04:42:17.989Z,0
2017-03-02T04:43:27.060Z,0
2017-03-02T04:44:36.141Z,0
2017-03-02T04:45:45.419Z,0
2017-03-02T04:46:54.405Z,0
2017-03-02T04:48:03.835Z,0
2017-03-02T04:49:13.234Z,0
2017-03-02T04:50:22.295Z,0
2017-03-02T04:51:31.585Z,0
2017-03-02T04:52:40.969Z,0
2017-03-02T04:53:49.955Z,0
2017-03-02T04:54:59.024Z,0
2017-03-02T04:56:08.826Z,0
2017-03-02T04:57:18.122Z,0
2017-03-02T04:58:27.124Z,0
2017-03-02T04:59:36.274Z,0
2017-03-02T05:00:45.286Z,0
2017-03-02T05:01:54.278Z,0
2017-03-02T05:03:04.119Z,0
2017-03-02T05:04:13.113Z,0
2017-03-02T05:05:22.087Z,0
2017-03-02T05:06:31.078Z,0
2017-03-02T05:07:40.081Z,0
2017-03-02T05:08:49.314Z,0
2017-03-02T05:09:58.317Z,0
2017-03-02T05:11:07.304Z,0
2017-03-02T05:12:16.303Z,0
2017-03-02T05:13:25.307Z,0
2017-03-02T05:14:34.297Z,0
2017-03-02T05:15:43.392Z,0
2017-03-02T05:16:52.396Z,0
2017-03-02T05:18:01.386Z,0
2017-03-02T05:19:10.632Z,0
2017-03-02T05:20:19.614Z,0
2017-03-02T05:21:28.613Z,0
2017-03-02T05:22:38.002Z,0
2017-03-02T05:23:46.982Z,0
2017-03-02T05:24:56.212Z,0
2017-03-02T05:26:05.196Z,0
2017-03-02T05:27:14.172Z,0
2017-03-02T05:28:23.156Z,0
2017-03-02T05:29:32.126Z,0
2017-03-02T05:30:41.443Z,0
2017-03-02T05:31:50.510Z,0
2017-03-02T05:32:59.502Z,0
2017-03-02T05:34:08.480Z,0
2017-03-02T05:35:17.559Z,0
2017-03-02T05:36:26.799Z,0
2017-03-02T05:37:35.796Z,0
2017-03-02T05:38:44.781Z,0
2017-03-02T05:39:53.758Z,0
2017-03-02T05:41:02.744Z,0
2017-03-02T05:42:12.007Z,0
2017-03-02T05:43:21.011Z,0
2017-03-02T05:44:29.990Z,0
2017-03-02T05:45:38.973Z,0
2017-03-02T05:46:47.962Z,0
2017-03-02T05:47:57.383Z,0
2017-03-02T05:49:06.374Z,0
2017-03-02T05:50:15.358Z,0
2017-03-02T05:51:24.347Z,0
2017-03-02T05:52:33.435Z,0
2017-03-02T05:53:42.681Z,0
2017-03-02T05:54:51.760Z,0
2017-03-02T05:56:00.733Z,0
2017-03-02T05:57:09.818Z,0
2017-03-02T05:58:18.809Z,0
2017-03-02T05:59:28.127Z,0
2017-03-02T06:00:37.122Z,0
2017-03-02T06:01:46.099Z,0
2017-03-02T06:02:55.080Z,0
2017-03-02T06:04:04.062Z,0
2017-03-02T06:05:13.384Z,0
2017-03-02T06:06:22.373Z,0
2017-03-02T06:07:31.350Z,0
2017-03-02T06:08:40.339Z,0
2017-03-02T06:09:49.753Z,0
2017-03-02T06:10:59.083Z,0
2017-03-02T06:12:08.477Z,0
2017-03-02T06:13:17.469Z,0
2017-03-02T06:14:26.458Z,5
2017-03-02T06:15:35.547Z,5
2017-03-02T06:16:44.782Z,0
2017-03-02T06:17:54.170Z,5
2017-03-02T06:19:03.167Z,5
2017-03-02T06:20:12.167Z,5
2017-03-02T06:21:21.145Z,5
2017-03-02T06:22:30.781Z,5
2017-03-02T06:23:39.847Z,5
2017-03-02T06:24:48.840Z,5
2017-03-02T06:25:57.912Z,5
2017-03-02T06:27:06.899Z,5
2017-03-02T06:28:16.198Z,5
2017-03-02T06:29:25.178Z,5
2017-03-02T06:30:34.194Z,5
2017-03-02T06:31:43.196Z,15
2017-03-02T06:32:52.180Z,10
2017-03-02T06:34:01.635Z,5
2017-03-02T06:35:10.644Z,10
2017-03-02T06:36:19.633Z,15
2017-03-02T06:37:28.604Z,15
2017-03-02T06:38:37.997Z,10
2017-03-02T06:39:47.228Z,10
2017-03-02T06:40:56.203Z,15
2017-03-02T06:42:05.591Z,20
2017-03-02T06:43:14.582Z,25
2017-03-02T06:44:23.567Z,30
2017-03-02T06:45:32.885Z,25
2017-03-02T06:46:41.871Z,35
2017-03-02T06:47:50.854Z,30
2017-03-02T06:48:59.926Z,25
2017-03-02T06:50:09.420Z,20
2017-03-02T06:51:18.708Z,30
2017-03-02T06:52:27.688Z,50
2017-03-02T06:53:36.682Z,45
2017-03-02T06:54:45.661Z,50
2017-03-02T06:55:54.742Z,40
2017-03-02T06:57:04.377Z,40
2017-03-02T06:58:13.794Z,35
2017-03-02T06:59:22.778Z,35
2017-03-02T07:00:31.764Z,55
2017-03-02T07:01:40.769Z,25
2017-03-02T07:02:50.472Z,30
2017-03-02T07:03:59.553Z,40
2017-03-02T07:05:08.540Z,35
2017-03-02T07:06:17.519Z,45
2017-03-02T07:07:26.504Z,65
2017-03-02T07:08:35.743Z,85
2017-03-02T07:09:44.730Z,70
2017-03-02T07:10:53.750Z,60
2017-03-02T07:12:02.884Z,55
2017-03-02T07:13:11.877Z,60
2017-03-02T07:14:21.312Z,45
2017-03-02T07:15:30.302Z,35
2017-03-02T07:16:39.315Z,30
2017-03-02T07:17:48.310Z,20
2017-03-02T07:18:57.304Z,30
2017-03-02T07:20:06.600Z,40
2017-03-02T07:21:15.591Z,40
2017-03-02T07:22:24.578Z,35
2017-03-02T07:23:33.576Z,30
2017-03-02T07:24:42.562Z,35
2017-03-02T07:25:51.800Z,40
2017-03-02T07:27:00.801Z,40
2017-03-02T07:28:09.784Z,30
2017-03-02T07:29:18.769Z,25
2017-03-02T07:30:27.748Z,45
2017-03-02T07:31:36.994Z,45
2017-03-02T07:32:46.019Z,45
2017-03-02T07:33:55.004Z,55
2017-03-02T07:35:04.024Z,55
2017-03-02T07:36:13.451Z,45
2017-03-02T07:37:22.746Z,30
2017-03-02T07:38:31.844Z,30
2017-03-02T07:39:40.853Z,25
2017-03-02T07:40:49.840Z,20
2017-03-02T07:41:58.819Z,30
2017-03-02T07:43:08.067Z,35
2017-03-02T07:44:17.044Z,50
2017-03-02T07:45:26.116Z,40
2017-03-02T07:46:35.502Z,40
2017-03-02T07:47:44.573Z,35
2017-03-02T07:48:53.861Z,35
2017-03-02T07:50:03.619Z,50
2017-03-02T07:51:12.837Z,65
2017-03-02T07:52:21.828Z,75
2017-03-02T07:53:30.831Z,55
2017-03-02T07:54:40.079Z,65
2017-03-02T07:55:49.153Z,70
2017-03-02T07:56:58.205Z,45
2017-03-02T07:58:07.262Z,35
2017-03-02T07:59:16.265Z,45
2017-03-02T08:00:25.857Z,40
2017-03-02T08:01:34.867Z,35
2017-03-02T08:02:43.853Z,30
2017-03-02T08:03:52.842Z,35
2017-03-02T08:05:01.853Z,40
2017-03-02T08:06:11.079Z,30
2017-03-02T08:07:20.083Z,25
2017-03-02T08:08:29.124Z,35
2017-03-02T08:09:38.304Z,40
2017-03-02T08:10:47.627Z,30
2017-03-02T08:11:57.636Z,20
2017-03-02T08:13:07.307Z,15
2017-03-02T08:14:17.315Z,10
2017-03-02T08:15:27.173Z,15
2017-03-02T08:16:36.538Z,15
2017-03-02T08:17:46.212Z,10
2017-03-02T08:18:55.200Z,10
2017-03-02T08:20:04.186Z,10
2017-03-02T08:21:13.324Z,15
2017-03-02T08:22:22.424Z,10
2017-03-02T08:23:31.677Z,10
2017-03-02T08:24:41.461Z,10
2017-03-02T08:25:50.459Z,5
2017-03-02T08:26:59.461Z,5
2017-03-02T08:28:08.447Z,10
2017-03-02T08:29:17.687Z,10
2017-03-02T08:30:27.083Z,5
2017-03-02T08:31:36.187Z,10
2017-03-02T08:32:45.766Z,15
2017-03-02T08:33:55.070Z,10
2017-03-02T08:35:04.332Z,15
2017-03-02T08:36:13.723Z,10
2017-03-02T08:37:22.719Z,10
2017-03-02T08:38:31.781Z,10
2017-03-02T08:39:40.792Z,10
2017-03-02T08:40:50.032Z,15
2017-03-02T08:41:59.026Z,10
2017-03-02T08:43:08.918Z,15
2017-03-02T08:44:17.895Z,15
2017-03-02T08:45:26.896Z,20
2017-03-02T08:46:36.129Z,20
2017-03-02T08:47:45.129Z,25
2017-03-02T08:48:54.104Z,25
2017-03-02T08:50:03.080Z,30
2017-03-02T08:51:12.082Z,25
2017-03-02T08:52:21.327Z,25
2017-03-02T08:53:30.310Z,30
2017-03-02T08:54:39.299Z,30
2017-03-02T08:55:49.127Z,25
2017-03-02T08:56:58.196Z,25
2017-03-02T08:58:07.444Z,35
2017-03-02T08:59:16.653Z,30
2017-03-02T09:00:25.648Z,25
2017-03-02T09:01:35.224Z,35
2017-03-02T09:02:44.251Z,40
2017-03-02T09:03:53.495Z,40
2017-03-02T09:05:02.491Z,30
2017-03-02T09:06:11.490Z,40
2017-03-02T09:07:20.566Z,45
2017-03-02T09:08:29.561Z,35
2017-03-02T09:09:38.893Z,35
2017-03-02T09:10:47.964Z,35
2017-03-02T09:11:56.936Z,45
2017-03-02T09:13:05.925Z,30
2017-03-02T09:14:14.927Z,35
2017-03-02T09:15:24.155Z,40
2017-03-02T09:16:33.131Z,45
2017-03-02T09:17:42.108Z,40
2017-03-02T09:18:51.126Z,40
2017-03-02T09:20:00.114Z,30
2017-03-02T09:21:09.353Z,25
2017-03-02T09:22:18.323Z,20
2017-03-02T09:23:27.316Z,50
2017-03-02T09:24:36.291Z,90
2017-03-02T09:25:45.697Z,60
2017-03-02T09:26:54.950Z,70
2017-03-02T09:28:03.947Z,65
2017-03-02T09:29:12.926Z,70
2017-03-02T09:30:21.905Z,90
2017-03-02T09:31:30.879Z,105
2017-03-02T09:32:40.118Z,105
2017-03-02T09:33:49.113Z,120
2017-03-02T09:34:58.094Z,115
2017-03-02T09:36:07.084Z,90
2017-03-02T09:37:16.064Z,80
2017-03-02T09:38:25.303Z,100
2017-03-02T09:39:34.284Z,95
2017-03-02T09:40:43.269Z,80
2017-03-02T09:41:52.254Z,95
2017-03-02T09:43:01.668Z,85
2017-03-02T09:44:11.315Z,85
2017-03-02T09:45:20.481Z,80
2017-03-02T09:46:29.484Z,65
2017-03-02T09:47:38.573Z,55
2017-03-02T09:48:47.566Z,45
2017-03-02T09:49:56.816Z,45
2017-03-02T09:51:05.799Z,40
2017-03-02T09:52:14.803Z,40
2017-03-02T09:53:24.278Z,40
2017-03-02T09:54:33.359Z,45
2017-03-02T09:55:42.585Z,30
2017-03-02T09:56:51.578Z,25
2017-03-02T09:58:00.562Z,20
2017-03-02T09:59:09.629Z,30
2017-03-02T10:00:18.605Z,35
2017-03-02T10:01:27.856Z,30
2017-03-02T10:02:36.836Z,30
2017-03-02T10:03:45.839Z,45
2017-03-02T10:04:54.813Z,55
2017-03-02T10:06:03.819Z,60
2017-03-02T10:07:13.156Z,65
2017-03-02T10:08:22.148Z,40
2017-03-02T10:09:31.149Z,65
2017-03-02T10:10:40.130Z,50
2017-03-02T10:11:49.112Z,100
2017-03-02T10:12:58.368Z,80
2017-03-02T10:14:07.360Z,70
2017-03-02T10:15:16.340Z,65
2017-03-02T10:16:25.339Z,50
2017-03-02T10:17:34.737Z,80
2017-03-02T10:18:43.973Z,70
2017-03-02T10:19:52.962Z,80
2017-03-02T10:21:01.965Z,100
2017-03-02T10:22:10.969Z,85
2017-03-02T10:23:20.038Z,75
2017-03-02T10:24:29.288Z,80
2017-03-02T10:25:38.289Z,50
2017-03-02T10:26:47.296Z,45
2017-03-02T10:27:56.289Z,55
2017-03-02T10:29:05.367Z,40
2017-03-02T10:30:14.627Z,45
2017-03-02T10:31:23.597Z,60
2017-03-02T10:32:32.584Z,75
2017-03-02T10:33:41.564Z,60
2017-03-02T10:34:50.560Z,75
2017-03-02T10:35:59.883Z,80
2017-03-02T10:37:08.862Z,65
2017-03-02T10:38:18.272Z,60
2017-03-02T10:39:27.255Z,55
2017-03-02T10:40:37.070Z,35
2017-03-02T10:41:46.361Z,30
2017-03-02T10:42:55.446Z,30
2017-03-02T10:44:04.536Z,20
2017-03-02T10:45:13.937Z,15
2017-03-02T10:46:22.942Z,20
2017-03-02T10:47:32.182Z,20
2017-03-02T10:48:41.172Z,15
2017-03-02T10:49:50.166Z,20
2017-03-02T10:50:59.165Z,20
2017-03-02T10:52:08.550Z,25
2017-03-02T10:53:18.001Z,25
2017-03-02T10:54:26.990Z,30
2017-03-02T10:55:36.067Z,30
2017-03-02T10:56:45.465Z,30
2017-03-02T10:57:54.439Z,30
2017-03-02T10:59:03.897Z,35
2017-03-02T11:00:12.870Z,35
2017-03-02T11:01:21.888Z,35
2017-03-02T11:02:30.868Z,45
2017-03-02T11:03:39.879Z,35
2017-03-02T11:04:49.121Z,45
2017-03-02T11:05:58.127Z,40
2017-03-02T11:07:07.208Z,40
2017-03-02T11:08:16.200Z,40
2017-03-02T11:09:25.275Z,40
2017-03-02T11:10:34.914Z,35
2017-03-02T11:11:43.908Z,35
2017-03-02T11:12:52.899Z,30
2017-03-02T11:14:01.869Z,35
2017-03-02T11:15:10.883Z,25
2017-03-02T11:16:20.115Z,30
2017-03-02T11:17:29.096Z,35
2017-03-02T11:18:38.084Z,25
2017-03-02T11:19:47.091Z,40
2017-03-02T11:20:56.074Z,50
2017-03-02T11:22:05.371Z,40
2017-03-02T11:23:14.464Z,40
2017-03-02T11:24:23.435Z,45
2017-03-02T11:25:32.413Z,60
2017-03-02T11:26:41.398Z,70
2017-03-02T11:27:50.700Z,60
2017-03-02T11:29:00.206Z,70
2017-03-02T11:30:09.205Z,70
2017-03-02T11:31:18.212Z,50
2017-03-02T11:32:27.700Z,85
2017-03-02T11:33:37.751Z,70
2017-03-02T11:34:46.737Z,90
2017-03-02T11:35:55.811Z,75
2017-03-02T11:37:04.797Z,75
2017-03-02T11:38:13.793Z,90
2017-03-02T11:39:23.040Z,85
2017-03-02T11:40:32.058Z,85
2017-03-02T11:41:41.774Z,90
2017-03-02T11:42:50.749Z,110
2017-03-02T11:44:00.143Z,125
2017-03-02T11:45:09.450Z,120
2017-03-02T11:46:18.525Z,110
2017-03-02T11:47:27.526Z,125
2017-03-02T11:48:36.511Z,140
2017-03-02T11:49:45.623Z,130
2017-03-02T11:50:54.863Z,130
2017-03-02T11:52:03.929Z,130
2017-03-02T11:53:12.914Z,145
2017-03-02T11:54:22.003Z,130
2017-03-02T11:55:31.073Z,150
2017-03-02T11:56:40.318Z,145
2017-03-02T11:57:49.386Z,135
2017-03-02T11:58:58.387Z,140
2017-03-02T12:00:07.462Z,145
2017-03-02T12:01:16.443Z,145
2017-03-02T12:02:25.676Z,150
2017-03-02T12:03:34.681Z,155
2017-03-02T12:04:43.676Z,120
2017-03-02T12:05:52.673Z,120
2017-03-02T12:07:01.672Z,135
2017-03-02T12:08:10.960Z,90
2017-03-02T12:09:20.048Z,115
2017-03-02T12:10:29.035Z,100
2017-03-02T12:11:38.016Z,100
2017-03-02T12:12:47.412Z,130
2017-03-02T12:13:56.662Z,90
2017-03-02T12:15:05.666Z,95
2017-03-02T12:16:14.645Z,90
2017-03-02T12:17:23.621Z,120
2017-03-02T12:18:32.710Z,105
2017-03-02T12:19:42.000Z,90
2017-03-02T12:20:50.976Z,80
2017-03-02T12:21:59.972Z,75
2017-03-02T12:23:08.947Z,80
2017-03-02T12:24:17.931Z,80
2017-03-02T12:25:27.165Z,60
2017-03-02T12:26:36.233Z,55
2017-03-02T12:27:45.632Z,50
2017-03-02T12:28:54.629Z,50
2017-03-02T12:30:04.124Z,75
2017-03-02T12:31:13.355Z,75
2017-03-02T12:32:22.332Z,65
2017-03-02T12:33:31.400Z,60
2017-03-02T12:34:40.377Z,60
2017-03-02T12:35:49.366Z,95
2017-03-02T12:36:58.606Z,100
2017-03-02T12:38:07.581Z,85
2017-03-02T12:39:16.674Z,80
2017-03-02T12:40:25.678Z,80
2017-03-02T12:41:34.657Z,85
2017-03-02T12:42:43.914Z,80
2017-03-02T12:43:52.887Z,90
2017-03-02T12:45:02.057Z,70
2017-03-02T12:46:11.036Z,70
2017-03-02T12:47:20.025Z,40
2017-03-02T12:48:29.417Z,70
2017-03-02T12:49:38.385Z,55
2017-03-02T12:50:47.380Z,40
2017-03-02T12:51:56.772Z,35
2017-03-02T12:53:05.752Z,25
2017-03-02T12:54:14.996Z,30
2017-03-02T12:55:23.966Z,35
2017-03-02T12:56:32.957Z,35
2017-03-02T12:57:41.929Z,35
2017-03-02T12:58:50.913Z,35
2017-03-02T13:00:00.176Z,40
2017-03-02T13:01:09.192Z,40
2017-03-02T13:02:18.167Z,45
2017-03-02T13:03:27.158Z,45
2017-03-02T13:04:36.152Z,35
2017-03-02T13:05:45.366Z,35
2017-03-02T13:06:54.366Z,30
2017-03-02T13:08:03.806Z,35
2017-03-02T13:09:12.787Z,30
2017-03-02T13:10:21.771Z,25
2017-03-02T13:11:31.106Z,25
2017-03-02T13:12:40.090Z,30
2017-03-02T13:13:49.076Z,30
2017-03-02T13:14:58.621Z,30
2017-03-02T13:16:07.714Z,30
2017-03-02T13:17:17.118Z,25
2017-03-02T13:18:26.238Z,25
2017-03-02T13:19:35.232Z,30
2017-03-02T13:20:44.217Z,30
2017-03-02T13:21:53.220Z,30
2017-03-02T13:23:02.508Z,25
2017-03-02T13:24:11.579Z,30
2017-03-02T13:25:20.563Z,35
2017-03-02T13:26:29.540Z,30
2017-03-02T13:27:38.547Z,35
2017-03-02T13:28:48.233Z,35
2017-03-02T13:29:57.373Z,30
2017-03-02T13:31:06.527Z,35
2017-03-02T13:32:15.508Z,40
2017-03-02T13:33:24.576Z,50
2017-03-02T13:34:33.801Z,60
2017-03-02T13:35:43.500Z,80
2017-03-02T13:36:53.409Z,90
2017-03-02T13:38:02.992Z,100
2017-03-02T13:39:22.372Z,115
2017-03-02T13:40:43.395Z,125
2017-03-02T13:41:58.395Z,130
2017-03-02T13:43:07.384Z,110
2017-03-02T13:44:16.366Z,80
2017-03-02T13:45:25.656Z,90
2017-03-02T13:46:34.648Z,100
2017-03-02T13:47:44.090Z,85
2017-03-02T13:48:53.173Z,55
2017-03-02T13:50:02.570Z,40
2017-03-02T13:51:11.879Z,65
2017-03-02T13:52:20.910Z,45
2017-03-02T13:53:29.884Z,55
2017-03-02T13:54:38.885Z,30
2017-03-02T13:55:47.956Z,50
2017-03-02T13:56:57.271Z,50
2017-03-02T13:58:06.356Z,50
2017-03-02T13:59:15.338Z,50
2017-03-02T14:00:24.351Z,55
2017-03-02T14:01:33.324Z,35
2017-03-02T14:02:42.622Z,40
2017-03-02T14:03:51.612Z,60
2017-03-02T14:05:00.698Z,60
2017-03-02T14:06:09.714Z,45
2017-03-02T14:07:18.711Z,50
2017-03-02T14:08:28.041Z,55
2017-03-02T14:09:37.374Z,60
2017-03-02T14:10:46.915Z,55
2017-03-02T14:11:56.005Z,35
2017-03-02T14:13:05.411Z,30
2017-03-02T14:14:14.786Z,40
2017-03-02T14:15:23.769Z,30
2017-03-02T14:16:32.761Z,30
2017-03-02T14:17:41.762Z,35
2017-03-02T14:18:50.742Z,35
2017-03-02T14:19:59.986Z,45
2017-03-02T14:21:09.193Z,65
2017-03-02T14:22:18.188Z,50
2017-03-02T14:23:27.266Z,45
2017-03-02T14:24:36.254Z,55
2017-03-02T14:25:45.502Z,50
2017-03-02T14:26:54.481Z,30
2017-03-02T14:28:03.817Z,30
2017-03-02T14:29:12.789Z,45
2017-03-02T14:30:21.788Z,30
2017-03-02T14:31:31.027Z,25
2017-03-02T14:32:40.122Z,30
2017-03-02T14:33:49.116Z,30
2017-03-02T14:34:58.095Z,20
2017-03-02T14:36:07.295Z,20
2017-03-02T14:37:16.582Z,15
2017-03-02T14:38:25.693Z,20
2017-03-02T14:39:34.770Z,20
2017-03-02T14:40:44.152Z,40
2017-03-02T14:41:53.141Z,45
2017-03-02T14:43:02.477Z,40
2017-03-02T14:44:11.466Z,55
2017-03-02T14:45:21.285Z,45
2017-03-02T14:46:30.264Z,55
2017-03-02T14:47:39.263Z,50
2017-03-02T14:48:48.493Z,45
2017-03-02T14:49:59.034Z,40
2017-03-02T14:51:08.528Z,30
2017-03-02T14:52:17.514Z,30
2017-03-02T14:53:26.501Z,25
2017-03-02T14:54:35.914Z,30
2017-03-02T14:55:46.303Z,30
2017-03-02T14:56:55.315Z,40
2017-03-02T14:58:04.376Z,45
2017-03-02T14:59:13.372Z,55
2017-03-02T15:00:22.609Z,50
2017-03-02T15:01:31.595Z,50
2017-03-02T15:02:40.693Z,60
2017-03-02T15:03:49.800Z,55
2017-03-02T15:04:58.781Z,50
2017-03-02T15:06:08.639Z,50
2017-03-02T15:07:18.677Z,50
2017-03-02T15:08:28.616Z,45
2017-03-02T15:09:38.205Z,35
2017-03-02T15:10:48.015Z,35
2017-03-02T15:11:57.574Z,30
2017-03-02T15:13:07.281Z,35
2017-03-02T15:14:17.544Z,40
2017-03-02T15:15:29.310Z,40
2017-03-02T15:16:39.094Z,45
2017-03-02T15:17:48.640Z,35
2017-03-02T15:18:57.634Z,40
2017-03-02T15:20:08.091Z,35
2017-03-02T15:21:17.297Z,30
2017-03-02T15:22:26.282Z,40
2017-03-02T15:23:35.849Z,40
2017-03-02T15:24:45.053Z,35
2017-03-02T15:25:55.090Z,40
2017-03-02T15:27:04.693Z,40
2017-03-02T15:28:14.580Z,40
2017-03-02T15:29:25.313Z,40
2017-03-02T15:30:36.666Z,40
2017-03-02T15:31:50.835Z,35
2017-03-02T15:33:00.208Z,30
2017-03-02T15:34:09.433Z,25
2017-03-02T15:35:18.900Z,30
2017-03-02T15:36:28.112Z,30
2017-03-02T15:37:37.350Z,25
2017-03-02T15:38:46.574Z,25
2017-03-02T15:39:55.561Z,25
2017-03-02T15:41:04.803Z,25
2017-03-02T15:42:13.788Z,25
2017-03-02T15:43:22.785Z,25
2017-03-02T15:44:32.131Z,20
2017-03-02T15:45:41.460Z,20
2017-03-02T15:46:50.812Z,20
2017-03-02T15:48:00.362Z,20
2017-03-02T15:49:09.355Z,15
2017-03-02T15:50:18.346Z,15
2017-03-02T15:51:27.344Z,15
2017-03-02T15:52:36.592Z,15
2017-03-02T15:53:45.575Z,10
2017-03-02T15:54:54.554Z,10
2017-03-02T15:56:03.548Z,15
2017-03-02T15:57:12.537Z,15
2017-03-02T15:58:22.250Z,15
2017-03-02T15:59:31.241Z,15
2017-03-02T16:00:40.338Z,10
2017-03-02T16:01:49.330Z,10
2017-03-02T16:02:58.307Z,10
2017-03-02T16:04:07.544Z,10
2017-03-02T16:05:16.528Z,5
2017-03-02T16:06:25.499Z,5
2017-03-02T16:07:34.952Z,5
2017-03-02T16:08:43.995Z,5
2017-03-02T16:09:56.904Z,5
2017-03-02T16:11:06.737Z,5
2017-03-02T16:12:15.801Z,5
2017-03-02T16:13:24.782Z,5
2017-03-02T16:14:33.880Z,5
2017-03-02T16:15:43.125Z,5
2017-03-02T16:16:52.473Z,5
2017-03-02T16:18:01.756Z,0
2017-03-02T16:19:10.744Z,5
2017-03-02T16:20:19.741Z,0
2017-03-02T16:21:28.992Z,0
2017-03-02T16:22:38.023Z,0
2017-03-02T16:23:47.755Z,0
2017-03-02T16:24:56.743Z,0
2017-03-02T16:26:06.559Z,0
2017-03-02T16:27:15.856Z,0
2017-03-02T16:28:24.876Z,5
2017-03-02T16:29:33.860Z,5
2017-03-02T16:30:42.847Z,5
2017-03-02T16:31:51.855Z,5
2017-03-02T16:33:01.083Z,0
2017-03-02T16:34:10.080Z,0
2017-03-02T16:35:19.086Z,0
2017-03-02T16:36:28.067Z,0
2017-03-02T16:37:37.137Z,0
2017-03-02T16:38:46.383Z,0
2017-03-02T16:39:55.374Z,0
2017-03-02T16:41:04.357Z,0
2017-03-02T16:42:13.359Z,0
2017-03-02T16:43:22.635Z,0
2017-03-02T16:44:33.298Z,0